createdAt,value
2022-12-09T00:02:25.004Z,26.45
2022-12-09T00:05:26.656Z,26.40
2022-12-09T00:08:28.269Z,26.77
2022-12-09T00:11:30.106Z,27.23
2022-12-09T00:14:31.737Z,30.80
2022-12-09T00:17:33.374Z,25.02
2022-12-09T00:20:35.118Z,32.10
2022-12-09T00:23:36.894Z,31.05
2022-12-09T00:26:38.577Z,29.50
2022-12-09T00:29:40.539Z,32.60
2022-12-09T00:32:43.025Z,27.50
2022-12-09T00:35:44.638Z,28.33
2022-12-09T00:38:46.576Z,31.05
2022-12-09T00:41:50.194Z,30.42
2022-12-09T00:44:52.090Z,29.40
2022-12-09T00:47:54.208Z,33.30
2022-12-09T00:50:55.882Z,30.73
2022-12-09T00:53:57.478Z,31.23
2022-12-09T00:57:01.072Z,30.92
2022-12-09T01:00:03.791Z,31.45
2022-12-09T01:03:05.939Z,31.02
2022-12-09T01:06:11.896Z,32.63
2022-12-09T01:09:14.047Z,34.10
2022-12-09T01:12:15.708Z,33.00
2022-12-09T01:15:17.607Z,33.37
2022-12-09T01:18:19.219Z,31.25
2022-12-09T01:21:21.247Z,33.33
2022-12-09T01:24:23.522Z,31.52
2022-12-09T01:27:25.507Z,32.00
2022-12-09T01:30:27.192Z,35.53
2022-12-09T01:33:29.415Z,33.45
2022-12-09T01:36:31.271Z,32.97
2022-12-09T01:39:32.836Z,33.08
2022-12-09T01:42:34.665Z,33.60
2022-12-09T01:45:41.011Z,32.23
2022-12-09T01:48:46.403Z,33.97
2022-12-09T01:51:56.970Z,36.35
2022-12-09T01:54:59.100Z,36.85
2022-12-09T01:58:00.960Z,34.25
2022-12-09T02:01:02.762Z,34.33
2022-12-09T02:04:05.793Z,39.70
2022-12-09T02:07:10.768Z,33.77
2022-12-09T02:10:15.573Z,28.88
2022-12-09T02:13:47.289Z,35.53
2022-12-09T02:17:20.809Z,38.60
2022-12-09T02:20:32.709Z,34.80
2022-12-09T02:23:40.759Z,31.65
2022-12-09T02:27:07.445Z,34.38
2022-12-09T02:30:20.546Z,35.03
2022-12-09T02:33:36.820Z,36.22
2022-12-09T02:36:54.002Z,35.55
2022-12-09T02:40:20.118Z,32.43
2022-12-09T02:43:28.452Z,30.10
2022-12-09T02:46:33.651Z,33.90
2022-12-09T02:49:37.443Z,32.93
2022-12-09T02:52:40.084Z,32.03
2022-12-09T02:55:45.682Z,31.80
2022-12-09T02:58:49.029Z,33.13
2022-12-09T03:02:12.371Z,32.30
2022-12-09T03:05:34.101Z,31.33
2022-12-09T03:08:42.091Z,32.92
2022-12-09T03:11:45.466Z,32.37
2022-12-09T03:14:52.787Z,35.45
2022-12-09T03:17:57.003Z,34.78
2022-12-09T03:20:58.943Z,34.77
2022-12-09T03:24:02.083Z,34.33
2022-12-09T03:27:09.150Z,33.13
2022-12-09T03:30:12.032Z,32.65
2022-12-09T03:33:18.046Z,33.80
2022-12-09T03:36:22.454Z,33.40
2022-12-09T03:39:37.572Z,35.30
2022-12-09T03:42:47.970Z,35.13
2022-12-09T03:45:51.386Z,36.88
2022-12-09T03:48:52.970Z,31.38
2022-12-09T03:52:00.940Z,32.57
2022-12-09T03:55:09.407Z,34.05
2022-12-09T03:58:13.825Z,29.15
2022-12-09T04:01:16.416Z,32.00
2022-12-09T04:04:18.210Z,30.15
2022-12-09T04:07:20.238Z,32.33
2022-12-09T04:10:21.799Z,35.83
2022-12-09T04:13:23.644Z,30.20
2022-12-09T04:16:26.014Z,28.42
2022-12-09T04:19:27.763Z,32.63
2022-12-09T04:22:30.096Z,29.13
2022-12-09T04:25:32.021Z,33.40
2022-12-09T04:28:33.722Z,32.95
2022-12-09T04:31:35.288Z,30.75
2022-12-09T04:34:37.287Z,37.45
2022-12-09T04:37:39.104Z,34.17
2022-12-09T04:40:40.962Z,33.13
2022-12-09T04:43:42.651Z,35.50
2022-12-09T04:46:44.428Z,31.92
2022-12-09T04:49:46.036Z,33.63
2022-12-09T04:52:47.680Z,34.67
2022-12-09T04:55:49.642Z,33.75
2022-12-09T04:58:51.865Z,33.90
2022-12-09T05:01:53.524Z,34.38
2022-12-09T05:04:55.422Z,34.28
2022-12-09T05:07:57.917Z,30.80
2022-12-09T05:11:00.859Z,32.00
2022-12-09T05:14:02.989Z,32.30
2022-12-09T05:17:04.761Z,31.45
2022-12-09T05:20:08.029Z,31.73
2022-12-09T05:23:10.481Z,33.70
2022-12-09T05:26:15.253Z,35.40
2022-12-09T05:29:22.569Z,35.88
2022-12-09T05:32:25.400Z,34.17
2022-12-09T05:35:27.353Z,32.38
2022-12-09T05:38:30.020Z,32.50
2022-12-09T05:41:31.928Z,34.53
2022-12-09T05:44:33.891Z,35.23
2022-12-09T05:47:35.550Z,35.17
2022-12-09T05:50:37.807Z,33.55
2022-12-09T05:53:39.691Z,33.73
2022-12-09T05:56:46.350Z,34.65
2022-12-09T05:59:49.761Z,34.78
2022-12-09T06:02:51.825Z,35.53
2022-12-09T06:05:53.816Z,37.13
2022-12-09T06:08:58.674Z,32.50
2022-12-09T06:12:01.244Z,31.15
2022-12-09T06:15:03.420Z,32.47
2022-12-09T06:18:05.588Z,33.80
2022-12-09T06:21:09.912Z,31.73
2022-12-09T06:24:11.779Z,30.47
2022-12-09T06:27:13.480Z,33.65
2022-12-09T06:30:15.539Z,34.15
2022-12-09T06:33:44.998Z,30.30
2022-12-09T06:36:39.236Z,32.47
2022-12-09T06:39:41.271Z,34.85
2022-12-09T06:42:43.240Z,35.35
2022-12-09T06:45:45.116Z,32.47
2022-12-09T06:48:47.267Z,35.63
2022-12-09T06:51:49.227Z,32.92
2022-12-09T06:54:51.165Z,31.60
2022-12-09T06:57:52.893Z,33.83
2022-12-09T07:00:54.502Z,31.15
2022-12-09T07:03:57.145Z,30.73
2022-12-09T07:06:59.188Z,32.60
2022-12-09T07:10:06.659Z,30.65
2022-12-09T07:13:08.602Z,26.40
2022-12-09T07:16:10.320Z,29.13
2022-12-09T07:19:18.215Z,30.67
2022-12-09T07:22:20.353Z,25.80
2022-12-09T07:25:22.099Z,26.37
2022-12-09T07:28:24.425Z,28.75
2022-12-09T07:31:28.570Z,24.60
2022-12-09T07:34:30.747Z,27.95
2022-12-09T07:37:32.433Z,25.45
2022-12-09T07:40:34.196Z,24.95
2022-12-09T07:43:36.770Z,25.17
2022-12-09T07:46:39.747Z,25.63
2022-12-09T07:49:41.504Z,26.23
2022-12-09T07:52:43.445Z,26.45
2022-12-09T07:55:45.293Z,26.00
2022-12-09T07:58:48.754Z,22.20
2022-12-09T08:01:50.496Z,24.02
2022-12-09T08:04:52.699Z,27.45
2022-12-09T08:07:54.709Z,29.23
2022-12-09T08:10:57.069Z,29.40
2022-12-09T08:14:07.254Z,29.10
2022-12-09T08:17:12.734Z,31.17
2022-12-09T08:20:15.506Z,29.23
2022-12-09T08:23:17.477Z,29.17
2022-12-09T08:26:21.403Z,30.50
2022-12-09T08:29:23.210Z,30.10
2022-12-09T08:32:25.663Z,29.45
2022-12-09T08:35:29.975Z,31.60
2022-12-09T08:38:32.031Z,30.60
2022-12-09T08:41:37.590Z,33.25
2022-12-09T08:44:40.100Z,30.40
2022-12-09T08:47:42.840Z,29.07
2022-12-09T08:50:44.736Z,30.33
2022-12-09T08:53:46.852Z,30.25
2022-12-09T08:56:51.626Z,31.07
2022-12-09T08:59:53.208Z,31.80
2022-12-09T09:02:55.025Z,31.55
2022-12-09T09:06:09.652Z,32.78
2022-12-09T09:09:14.266Z,31.05
2022-12-09T09:12:16.169Z,31.08
2022-12-09T09:15:18.136Z,32.28
2022-12-09T09:18:19.882Z,34.20
2022-12-09T09:21:24.301Z,37.25
2022-12-09T09:24:26.711Z,34.30
2022-12-09T09:27:29.020Z,34.53
2022-12-09T09:30:30.721Z,32.08
2022-12-09T09:33:32.657Z,37.40
2022-12-09T09:36:34.778Z,39.80
2022-12-09T09:39:36.806Z,34.47
2022-12-09T09:42:47.940Z,36.38
2022-12-09T09:45:50.625Z,33.80
2022-12-09T09:48:53.724Z,35.10
2022-12-09T09:51:55.798Z,37.03
2022-12-09T09:54:58.623Z,38.13
2022-12-09T09:58:18.017Z,35.87
2022-12-09T10:01:21.279Z,39.45
2022-12-09T10:04:33.702Z,40.78
2022-12-09T10:07:44.729Z,33.35
2022-12-09T10:11:01.955Z,32.80
2022-12-09T10:14:28.791Z,34.35
2022-12-09T10:17:55.476Z,32.97
2022-12-09T10:20:57.457Z,36.27
2022-12-09T10:24:15.888Z,38.00
2022-12-09T10:27:53.295Z,34.88
2022-12-09T10:35:48.993Z,36.75
2022-12-09T10:38:51.648Z,35.75
2022-12-09T10:42:15.403Z,36.92
2022-12-09T10:45:17.168Z,41.05
2022-12-09T10:48:32.954Z,35.78
2022-12-09T10:51:36.543Z,37.75
2022-12-09T10:54:49.607Z,36.30
2022-12-09T10:57:52.612Z,35.38
2022-12-09T11:01:07.792Z,38.85
2022-12-09T11:04:13.295Z,40.33
2022-12-09T11:07:19.071Z,38.47
2022-12-09T11:10:25.184Z,38.22
2022-12-09T11:13:37.864Z,42.03
2022-12-09T11:16:40.040Z,40.03
2022-12-09T11:19:43.515Z,39.75
2022-12-09T11:22:46.678Z,36.50
2022-12-09T11:25:51.708Z,40.10
2022-12-09T11:29:26.204Z,38.45
2022-12-09T11:32:28.363Z,34.22
2022-12-09T11:35:39.253Z,35.20
2022-12-09T11:38:49.488Z,38.13
2022-12-09T11:42:17.133Z,38.58
2022-12-09T11:45:31.394Z,39.25
2022-12-09T11:48:41.757Z,38.38
2022-12-09T11:52:03.050Z,35.30
2022-12-09T11:55:24.204Z,35.35
2022-12-09T11:58:39.177Z,36.33
2022-12-09T12:01:50.152Z,40.47
2022-12-09T12:05:01.417Z,36.45
2022-12-09T12:08:17.047Z,39.83
2022-12-09T12:11:36.146Z,36.03
2022-12-09T12:14:41.221Z,33.63
2022-12-09T12:17:50.385Z,37.63
2022-12-09T12:21:13.789Z,35.22
2022-12-09T12:24:18.147Z,35.90
2022-12-09T12:27:57.266Z,43.92
2022-12-09T12:31:25.837Z,38.53
2022-12-09T12:34:27.427Z,36.67
2022-12-09T12:37:56.318Z,38.75
2022-12-09T12:41:24.280Z,39.27
2022-12-09T12:44:51.907Z,37.97
2022-12-09T12:48:49.026Z,43.83
2022-12-09T12:52:54.471Z,36.97
2022-12-09T12:55:52.511Z,35.53
2022-12-09T12:59:08.811Z,33.10
2022-12-09T13:02:24.586Z,32.05
2022-12-09T13:05:37.549Z,34.90
2022-12-09T13:08:48.703Z,34.00
2022-12-09T13:12:11.814Z,37.42
2022-12-09T13:15:19.804Z,35.80
2022-12-09T13:18:31.483Z,31.80
2022-12-09T13:21:34.864Z,34.28
2022-12-09T13:24:43.221Z,37.47
2022-12-09T13:28:06.419Z,35.53
2022-12-09T13:31:09.902Z,35.47
2022-12-09T13:34:20.601Z,32.08
2022-12-09T13:37:34.705Z,40.63
2022-12-09T13:40:38.898Z,36.35
2022-12-09T13:43:40.669Z,42.33
2022-12-09T13:46:42.951Z,39.80
2022-12-09T13:49:57.106Z,36.95
2022-12-09T13:53:02.356Z,40.72
2022-12-09T13:56:06.620Z,37.35
2022-12-09T13:59:32.238Z,54.67
2022-12-09T14:02:43.261Z,34.28
2022-12-09T14:05:49.741Z,33.47
2022-12-09T14:08:55.773Z,29.43
2022-12-09T14:12:00.429Z,31.00
2022-12-09T14:15:23.953Z,28.17
2022-12-09T14:18:32.727Z,34.27
2022-12-09T14:21:34.820Z,27.25
2022-12-09T14:24:36.684Z,34.42
2022-12-09T14:27:38.282Z,31.10
2022-12-09T14:30:45.836Z,30.20
2022-12-09T14:33:47.680Z,31.63
2022-12-09T14:36:59.911Z,31.38
2022-12-09T14:40:13.986Z,29.30
2022-12-09T14:43:53.240Z,29.77
2022-12-09T14:47:15.887Z,28.85
2022-12-09T14:50:23.424Z,31.60
2022-12-09T14:53:25.747Z,33.58
2022-12-09T14:56:29.521Z,30.20
2022-12-09T14:59:32.777Z,34.60
2022-12-09T15:02:34.477Z,32.97
2022-12-09T15:05:38.514Z,32.95
2022-12-09T15:08:41.359Z,31.50
2022-12-09T15:11:42.971Z,30.37
2022-12-09T15:14:46.541Z,32.42
2022-12-09T15:18:07.563Z,32.13
2022-12-09T15:21:09.455Z,34.30
2022-12-09T15:24:14.138Z,31.70
2022-12-09T15:27:22.125Z,40.35
2022-12-09T15:30:30.181Z,94.95
2022-12-09T15:33:39.532Z,104.65
2022-12-09T15:36:49.619Z,33.92
2022-12-09T15:40:02.934Z,27.65
2022-12-09T15:43:11.045Z,31.33
2022-12-09T15:46:13.492Z,27.35
2022-12-09T15:49:21.650Z,31.63
2022-12-09T15:52:29.073Z,36.63
2022-12-09T15:55:51.508Z,31.67
2022-12-09T15:58:58.237Z,36.15
2022-12-09T16:02:00.811Z,31.13
2022-12-09T16:05:05.484Z,29.60
2022-12-09T16:08:07.280Z,33.15
2022-12-09T16:11:09.983Z,30.17
2022-12-09T16:14:12.632Z,30.90
2022-12-09T16:17:23.360Z,30.17
2022-12-09T16:20:40.136Z,31.55
2022-12-09T16:23:46.943Z,30.30
2022-12-09T16:26:51.369Z,32.72
2022-12-09T16:30:01.822Z,34.92
2022-12-09T16:33:03.482Z,31.90
2022-12-09T16:36:07.276Z,33.53
2022-12-09T16:39:08.791Z,32.47
2022-12-09T16:42:29.234Z,33.78
2022-12-09T16:45:37.370Z,30.30
2022-12-09T16:48:39.031Z,32.03
2022-12-09T16:51:40.669Z,32.83
2022-12-09T16:54:44.559Z,35.37
2022-12-09T16:57:46.120Z,38.15
2022-12-09T17:00:48.297Z,34.67
2022-12-09T17:03:53.466Z,32.67
2022-12-09T17:06:55.156Z,30.58
2022-12-09T17:09:56.727Z,33.20
2022-12-09T17:12:58.292Z,29.70
2022-12-09T17:16:00.054Z,34.63
2022-12-09T17:19:02.652Z,36.30
2022-12-09T17:22:04.207Z,38.80
2022-12-09T17:25:06.433Z,33.27
2022-12-09T17:28:08.471Z,39.53
2022-12-09T17:31:12.894Z,37.85
2022-12-09T17:34:14.422Z,35.97
2022-12-09T17:37:16.271Z,40.28
2022-12-09T17:40:17.879Z,39.30
2022-12-09T17:43:19.688Z,38.50
2022-12-09T17:46:21.517Z,35.30
2022-12-09T17:49:23.190Z,41.33
2022-12-09T17:52:24.909Z,35.53
2022-12-09T17:55:30.064Z,34.43
2022-12-09T17:58:32.070Z,37.45
2022-12-09T18:01:43.853Z,55.28
2022-12-09T18:04:48.898Z,40.15
2022-12-09T18:07:52.669Z,41.47
2022-12-09T18:10:55.459Z,57.55
2022-12-09T18:13:58.090Z,43.63
2022-12-09T18:17:03.267Z,35.17
2022-12-09T18:20:09.158Z,45.80
2022-12-09T18:23:13.289Z,40.17
2022-12-09T18:26:19.020Z,42.07
2022-12-09T18:29:22.614Z,39.75
2022-12-09T18:32:25.523Z,40.25
2022-12-09T18:35:39.937Z,39.20
2022-12-09T18:38:46.190Z,38.28
2022-12-09T18:41:52.468Z,42.55
2022-12-09T18:44:55.776Z,40.90
2022-12-09T18:47:59.111Z,44.00
2022-12-09T18:51:01.302Z,37.75
2022-12-09T18:54:04.020Z,39.00
2022-12-09T18:57:05.609Z,36.50
2022-12-09T19:00:08.397Z,45.45
2022-12-09T19:03:10.113Z,42.75
2022-12-09T19:06:20.909Z,34.63
2022-12-09T19:12:57.013Z,39.70
2022-12-09T19:16:03.946Z,41.90
2022-12-09T19:19:10.143Z,43.43
2022-12-09T19:22:12.325Z,44.28
2022-12-09T19:25:13.998Z,44.50
2022-12-09T19:28:17.455Z,43.60
2022-12-09T19:31:26.797Z,39.55
2022-12-09T19:34:29.754Z,36.92
2022-12-09T19:37:31.429Z,40.60
2022-12-09T19:40:33.019Z,38.47
2022-12-09T19:43:35.252Z,40.20
2022-12-09T19:46:38.406Z,36.33
2022-12-09T19:49:42.100Z,36.90
2022-12-09T19:52:43.974Z,47.22
2022-12-09T19:55:46.142Z,52.47
2022-12-09T19:58:49.425Z,45.60
2022-12-09T20:01:51.487Z,41.80
2022-12-09T20:04:55.650Z,32.22
2022-12-09T20:07:57.404Z,34.42
2022-12-09T20:10:59.106Z,36.08
2022-12-09T20:17:31.066Z,35.83
2022-12-09T20:20:33.773Z,36.30
2022-12-09T20:23:36.821Z,35.50
2022-12-09T20:26:38.710Z,40.92
2022-12-09T20:29:40.375Z,36.00
2022-12-09T20:32:43.830Z,36.78
2022-12-09T20:35:45.489Z,36.58
2022-12-09T20:39:02.425Z,32.80
2022-12-09T20:42:04.134Z,35.75
2022-12-09T20:45:06.890Z,36.42
2022-12-09T20:48:08.481Z,35.60
2022-12-09T20:51:14.794Z,34.80
2022-12-09T20:54:16.445Z,38.33
2022-12-09T20:57:18.021Z,35.40
2022-12-09T21:00:19.542Z,39.60
2022-12-09T21:03:21.144Z,32.80
2022-12-09T21:06:24.959Z,35.80
2022-12-09T21:09:27.207Z,36.08
2022-12-09T21:12:28.928Z,33.35
2022-12-09T21:15:30.480Z,33.72
2022-12-09T21:18:32.281Z,35.28
2022-12-09T21:21:36.117Z,37.73
2022-12-09T21:24:38.189Z,37.25
2022-12-09T21:27:39.952Z,40.53
2022-12-09T21:30:41.481Z,41.47
2022-12-09T21:33:44.805Z,40.53
2022-12-09T21:36:46.540Z,42.25
2022-12-09T21:39:48.076Z,39.83
2022-12-09T21:42:49.606Z,40.10
2022-12-09T21:45:51.199Z,43.17
2022-12-09T21:48:59.939Z,40.67
2022-12-09T21:52:06.613Z,40.03
2022-12-09T21:55:08.554Z,39.80
2022-12-09T21:58:10.140Z,39.53
2022-12-09T22:01:36.012Z,38.23
2022-12-09T22:04:38.042Z,39.22
2022-12-09T22:07:39.751Z,45.13
2022-12-09T22:10:41.808Z,44.95
2022-12-09T22:13:44.406Z,43.67
2022-12-09T22:16:46.629Z,50.30
2022-12-09T22:20:01.094Z,44.75
2022-12-09T22:23:11.006Z,45.07
2022-12-09T22:26:15.911Z,47.63
2022-12-09T22:29:18.324Z,48.78
2022-12-09T22:32:20.290Z,49.40
2022-12-09T22:35:21.937Z,52.00
2022-12-09T22:38:23.673Z,48.63
2022-12-09T22:41:28.267Z,50.92
2022-12-09T22:44:30.079Z,57.97
2022-12-09T22:47:31.809Z,50.60
2022-12-09T22:50:35.639Z,43.85
2022-12-09T22:53:38.020Z,42.67
2022-12-09T22:56:42.524Z,47.25
2022-12-09T22:59:44.527Z,53.05
2022-12-09T23:02:46.210Z,48.90
2022-12-09T23:05:48.009Z,48.88
2022-12-09T23:08:49.724Z,44.97
2022-12-09T23:11:52.366Z,50.42
2022-12-09T23:14:54.116Z,45.83
2022-12-09T23:17:55.949Z,47.47
2022-12-09T23:21:28.386Z,51.65
2022-12-09T23:24:31.098Z,44.63
2022-12-09T23:27:32.749Z,50.60
2022-12-09T23:30:34.769Z,45.42
2022-12-09T23:33:37.813Z,46.63
2022-12-09T23:36:41.308Z,54.97
2022-12-09T23:39:43.319Z,49.47
2022-12-09T23:42:44.978Z,51.17
2022-12-09T23:45:47.695Z,44.97
2022-12-09T23:48:50.781Z,46.78
2022-12-09T23:51:52.365Z,48.35
2022-12-09T23:54:53.889Z,49.20
2022-12-09T23:57:55.483Z,50.58
